Time;durP1;ratioP1;P1;durP2;ratioP2;P2;SDS_P1;SDS_P2;PMS_P1;PMS_P2;Temp;Humidity;BMP_temperature;BMP_pressure;BME280_temperature;BME280_humidity;BME280_pressure;Samples;Min_cycle;Max_cycle;Signal;HPM_P1;HPM_P2
2023/08/01 00:01:34;;;;;;;;;0.00;0.00;;;;;;;;5049555;28;8792;-84
2023/08/01 00:04:01;;;;;;;;;0.60;0.00;;;;;;;;5048563;28;8893;-84
2023/08/01 00:06:28;;;;;;;;;0.40;0.00;;;;;;;;5049485;28;8854;-86
2023/08/01 00:08:57;;;;;;;;;0.00;0.00;;;;;;;;5048157;28;8847;-83
2023/08/01 00:11:24;;;;;;;;;0.00;0.00;;;;;;;;5050052;28;8847;-85
2023/08/01 00:13:51;;;;;;;;;0.00;0.00;;;;;;;;5036719;28;8862;-86
2023/08/01 00:16:18;;;;;;;;;0.00;0.00;;;;;;;;5049984;28;8859;-88
2023/08/01 00:18:46;;;;;;;;;0.00;0.00;;;;;;;;5048282;28;8863;-86
2023/08/01 00:21:13;;;;;;;;;0.00;0.00;;;;;;;;5057431;28;8865;-87
2023/08/01 00:23:40;;;;;;;;;0.00;0.00;;;;;;;;5052156;28;8866;-88
2023/08/01 00:26:09;;;;;;;;;0.00;0.00;;;;;;;;5057839;28;8883;-85
2023/08/01 00:28:36;;;;;;;;;0.00;0.00;;;;;;;;5053727;28;9143;-82
2023/08/01 00:31:05;;;;;;;;;0.00;0.00;;;;;;;;5050211;28;8834;-85
2023/08/01 00:33:32;;;;;;;;;0.00;0.00;;;;;;;;5049624;28;8873;-86
2023/08/01 00:35:59;;;;;;;;;1.00;0.00;;;;;;;;5049113;28;8866;-83
2023/08/01 00:38:26;;;;;;;;;0.00;0.00;;;;;;;;5048428;28;8906;-86
2023/08/01 00:40:53;;;;;;;;;0.00;0.00;;;;;;;;5049133;28;8889;-81
2023/08/01 00:43:22;;;;;;;;;0.00;0.00;;;;;;;;5048459;28;8993;-83
2023/08/01 00:45:50;;;;;;;;;0.00;0.00;;;;;;;;5048485;28;8863;-80
2023/08/01 00:48:18;;;;;;;;;0.00;0.00;;;;;;;;5044255;28;9659;-84
2023/08/01 00:50:46;;;;;;;;;0.00;0.00;;;;;;;;5047927;28;8839;-83
2023/08/01 00:53:13;;;;;;;;;0.00;0.00;;;;;;;;5042033;28;8868;-84
2023/08/01 00:55:41;;;;;;;;;0.00;0.00;;;;;;;;5048540;28;8851;-81
2023/08/01 00:58:08;;;;;;;;;0.00;0.00;;;;;;;;5048848;28;8861;-83
2023/08/01 01:00:56;;;;;;;;;0.00;0.00;;;;;;;;5047553;28;8776;-84
2023/08/01 01:03:24;;;;;;;;;1.00;0.00;;;;;;;;5040393;28;8853;-85
2023/08/01 01:05:57;;;;;;;;;0.00;0.00;;;;;;;;5048041;28;8969;-81
2023/08/01 01:08:25;;;;;;;;;0.00;0.00;;;;;;;;5048468;28;8847;-82
2023/08/01 01:10:52;;;;;;;;;0.00;0.00;;;;;;;;5038205;28;9599;-83
2023/08/01 01:13:19;;;;;;;;;0.00;0.00;;;;;;;;5033897;28;8850;-82
2023/08/01 01:15:46;;;;;;;;;0.00;0.00;;;;;;;;5044412;28;8966;-83
2023/08/01 01:18:15;;;;;;;;;0.00;0.00;;;;;;;;5047971;28;8827;-83
2023/08/01 01:20:43;;;;;;;;;0.00;0.00;;;;;;;;5048113;28;8869;-90
2023/08/01 01:23:11;;;;;;;;;0.00;0.00;;;;;;;;5047433;28;8843;-89
2023/08/01 01:25:40;;;;;;;;;0.00;0.00;;;;;;;;5049136;28;8871;-87
2023/08/01 01:28:08;;;;;;;;;0.00;0.00;;;;;;;;5046533;28;8854;-90
2023/08/01 01:30:36;;;;;;;;;0.00;0.00;;;;;;;;5034663;28;8763;-87
2023/08/01 01:33:03;;;;;;;;;0.00;0.00;;;;;;;;5048667;28;8981;-91
2023/08/01 01:35:31;;;;;;;;;0.00;0.00;;;;;;;;5048919;28;9590;-89
2023/08/01 01:38:03;;;;;;;;;0.00;0.00;;;;;;;;5049696;28;8851;-91
2023/08/01 01:40:30;;;;;;;;;0.00;0.00;;;;;;;;5056509;28;8870;-93
2023/08/01 01:42:58;;;;;;;;;0.00;0.00;;;;;;;;5043704;28;8846;-92
2023/08/01 01:45:25;;;;;;;;;0.00;0.00;;;;;;;;5043466;28;9004;-91
2023/08/01 01:47:52;;;;;;;;;0.00;0.00;;;;;;;;5038479;28;8848;-92
2023/08/01 01:50:19;;;;;;;;;0.00;0.00;;;;;;;;5050088;28;8891;-91
2023/08/01 01:52:47;;;;;;;;;0.00;0.00;;;;;;;;5053231;28;8854;-93
2023/08/01 01:55:15;;;;;;;;;0.00;0.00;;;;;;;;5052657;28;8859;-93
2023/08/01 01:57:42;;;;;;;;;0.00;0.00;;;;;;;;5052922;28;8867;-87
2023/08/01 02:00:11;;;;;;;;;0.00;0.00;;;;;;;;5040422;28;8872;-91
2023/08/01 02:02:38;;;;;;;;;0.00;0.00;;;;;;;;5046693;28;8884;-86
2023/08/01 02:05:06;;;;;;;;;0.00;0.00;;;;;;;;5034416;28;8966;-87
2023/08/01 02:07:34;;;;;;;;;0.25;0.00;;;;;;;;5043355;28;8859;-91
2023/08/01 02:10:01;;;;;;;;;0.00;0.00;;;;;;;;5052546;28;8870;-88
2023/08/01 02:12:31;;;;;;;;;0.00;0.00;;;;;;;;5048884;28;8945;-86
2023/08/01 02:14:58;;;;;;;;;0.00;0.00;;;;;;;;5054965;28;8920;-89
2023/08/01 02:17:26;;;;;;;;;0.00;0.00;;;;;;;;5057333;28;8867;-88
2023/08/01 02:19:53;;;;;;;;;0.00;0.00;;;;;;;;5043865;28;8856;-88
2023/08/01 02:22:20;;;;;;;;;0.00;0.00;;;;;;;;5043540;28;8982;-85
2023/08/01 02:24:47;;;;;;;;;0.00;0.00;;;;;;;;5036163;28;8938;-87
2023/08/01 02:27:14;;;;;;;;;0.00;0.00;;;;;;;;5041917;28;8846;-84
2023/08/01 02:29:44;;;;;;;;;0.00;0.00;;;;;;;;5044533;28;8984;-87
2023/08/01 02:32:11;;;;;;;;;0.00;0.00;;;;;;;;5042243;28;8893;-81
2023/08/01 02:34:38;;;;;;;;;0.00;0.00;;;;;;;;5050760;28;8859;-82
2023/08/01 02:37:06;;;;;;;;;0.25;0.25;;;;;;;;5040507;28;8850;-83
2023/08/01 02:39:33;;;;;;;;;0.00;0.00;;;;;;;;5049129;28;8851;-82
2023/08/01 02:42:00;;;;;;;;;0.00;0.00;;;;;;;;5040569;28;8853;-88
2023/08/01 02:44:28;;;;;;;;;0.00;0.00;;;;;;;;5050469;28;9657;-86
2023/08/01 02:46:56;;;;;;;;;0.00;0.00;;;;;;;;5050956;28;9595;-84
2023/08/01 02:49:24;;;;;;;;;0.00;0.00;;;;;;;;5039378;28;8983;-86
2023/08/01 02:51:51;;;;;;;;;0.50;0.50;;;;;;;;5053202;28;8859;-82
2023/08/01 02:54:18;;;;;;;;;0.75;0.75;;;;;;;;5047935;28;8870;-82
2023/08/01 02:56:45;;;;;;;;;0.00;0.00;;;;;;;;5033508;28;8891;-84
2023/08/01 02:59:13;;;;;;;;;0.75;0.75;;;;;;;;5056224;28;9714;-83
2023/08/01 03:01:40;;;;;;;;;0.00;0.00;;;;;;;;5056486;28;8792;-81
2023/08/01 03:04:11;;;;;;;;;1.00;1.00;;;;;;;;5049494;28;9441;-84
2023/08/01 03:06:39;;;;;;;;;1.00;1.00;;;;;;;;5051796;28;8870;-89
2023/08/01 03:09:07;;;;;;;;;3.00;1.00;;;;;;;;5050349;28;8859;-89
2023/08/01 03:11:36;;;;;;;;;1.00;1.00;;;;;;;;5038128;28;8940;-88
2023/08/01 03:14:04;;;;;;;;;0.75;0.75;;;;;;;;5050921;28;8863;-89
2023/08/01 03:16:31;;;;;;;;;1.25;1.25;;;;;;;;5049130;28;8886;-87
2023/08/01 03:19:04;;;;;;;;;2.00;2.00;;;;;;;;5051196;28;8843;-89
2023/08/01 03:21:33;;;;;;;;;4.25;2.25;;;;;;;;5034976;28;9008;-90
2023/08/01 03:24:00;;;;;;;;;2.00;2.00;;;;;;;;5032124;28;9172;-94
2023/08/01 03:26:29;;;;;;;;;3.00;3.00;;;;;;;;5051566;28;8871;-92
2023/08/01 03:28:56;;;;;;;;;2.00;2.00;;;;;;;;5058801;28;8862;-92
2023/08/01 03:31:23;;;;;;;;;3.75;3.75;;;;;;;;5052414;28;8823;-90
2023/08/01 03:33:51;;;;;;;;;3.00;1.25;;;;;;;;5045472;28;8915;-90
2023/08/01 03:36:18;;;;;;;;;3.00;2.00;;;;;;;;5052992;28;8975;-85
2023/08/01 03:38:47;;;;;;;;;2.75;2.50;;;;;;;;5051426;28;8858;-86
2023/08/01 03:41:14;;;;;;;;;2.00;2.00;;;;;;;;5054258;28;8839;-92
2023/08/01 03:43:41;;;;;;;;;4.75;4.00;;;;;;;;5052808;28;8916;-82
2023/08/01 03:46:09;;;;;;;;;4.00;4.00;;;;;;;;5044301;28;8872;-89
2023/08/01 03:48:36;;;;;;;;;3.25;3.25;;;;;;;;5033041;28;8951;-91
2023/08/01 03:51:04;;;;;;;;;3.00;3.00;;;;;;;;5049100;28;8903;-88
2023/08/01 03:53:31;;;;;;;;;4.25;3.75;;;;;;;;5050155;28;9361;-87
2023/08/01 03:56:00;;;;;;;;;3.00;3.00;;;;;;;;5049557;28;8851;-88
2023/08/01 03:58:27;;;;;;;;;2.00;2.00;;;;;;;;5036608;28;8955;-86
2023/08/01 04:00:54;;;;;;;;;3.00;3.00;;;;;;;;5049699;28;8815;-87
2023/08/01 04:03:22;;;;;;;;;3.25;2.50;;;;;;;;5049974;28;8893;-88
2023/08/01 04:05:49;;;;;;;;;3.00;3.00;;;;;;;;5055111;28;8875;-88
2023/08/01 04:08:16;;;;;;;;;2.25;2.25;;;;;;;;5053418;28;8851;-85
2023/08/01 04:10:43;;;;;;;;;2.50;2.50;;;;;;;;5049101;28;8866;-83
2023/08/01 04:13:12;;;;;;;;;1.50;1.50;;;;;;;;5051879;28;8994;-78
2023/08/01 04:15:39;;;;;;;;;4.75;3.00;;;;;;;;5050660;28;8847;-76
2023/08/01 04:18:06;;;;;;;;;3.00;3.00;;;;;;;;5048010;28;8842;-75
2023/08/01 04:20:33;;;;;;;;;4.50;2.75;;;;;;;;5047945;28;8851;-77
2023/08/01 04:23:01;;;;;;;;;2.75;2.25;;;;;;;;5047328;28;9271;-76
2023/08/01 04:25:29;;;;;;;;;3.25;3.25;;;;;;;;5048124;28;8879;-72
2023/08/01 04:27:56;;;;;;;;;3.50;3.50;;;;;;;;5047490;28;9606;-74
2023/08/01 04:30:24;;;;;;;;;5.25;4.00;;;;;;;;5047554;28;8803;-73
2023/08/01 04:32:51;;;;;;;;;2.50;2.50;;;;;;;;5047295;28;8871;-72
2023/08/01 04:35:18;;;;;;;;;3.25;3.25;;;;;;;;5047824;28;8977;-74
2023/08/01 04:37:46;;;;;;;;;2.75;2.75;;;;;;;;5047564;28;8865;-77
2023/08/01 04:40:13;;;;;;;;;2.00;2.00;;;;;;;;5047304;28;8858;-73
2023/08/01 04:42:40;;;;;;;;;5.75;5.75;;;;;;;;5047406;28;9645;-72
2023/08/01 04:45:08;;;;;;;;;3.00;3.00;;;;;;;;5048129;28;8959;-73
2023/08/01 04:47:37;;;;;;;;;4.00;4.00;;;;;;;;5047300;28;8857;-72
2023/08/01 04:50:05;;;;;;;;;3.75;2.25;;;;;;;;5047802;28;8847;-73
2023/08/01 04:52:32;;;;;;;;;6.75;4.00;;;;;;;;5047033;28;8989;-75
2023/08/01 04:54:59;;;;;;;;;2.00;2.00;;;;;;;;5047545;28;8883;-77
2023/08/01 04:57:26;;;;;;;;;3.50;3.50;;;;;;;;5047468;28;8884;-78
2023/08/01 04:59:53;;;;;;;;;4.00;4.00;;;;;;;;5047039;28;9633;-76
2023/08/01 05:02:20;;;;;;;;;1.00;1.00;;;;;;;;5046764;28;8824;-78
2023/08/01 05:04:49;;;;;;;;;3.00;3.00;;;;;;;;5047196;28;8878;-78
2023/08/01 05:07:16;;;;;;;;;4.00;4.00;;;;;;;;5046510;28;8893;-80
2023/08/01 05:09:43;;;;;;;;;4.00;3.25;;;;;;;;5047449;28;8839;-80
2023/08/01 05:12:11;;;;;;;;;4.00;3.00;;;;;;;;5047927;28;8874;-77
2023/08/01 05:14:38;;;;;;;;;2.50;2.50;;;;;;;;5047827;28;8843;-77
2023/08/01 05:17:06;;;;;;;;;2.75;2.75;;;;;;;;5048967;28;8861;-77
2023/08/01 05:19:33;;;;;;;;;2.50;2.50;;;;;;;;5049288;28;8847;-77
2023/08/01 05:22:01;;;;;;;;;2.00;2.00;;;;;;;;5036083;28;9672;-77
2023/08/01 05:24:28;;;;;;;;;2.50;0.75;;;;;;;;5044041;28;8842;-74
2023/08/01 05:26:56;;;;;;;;;5.75;4.75;;;;;;;;5037687;28;8858;-75
2023/08/01 05:29:23;;;;;;;;;3.00;3.00;;;;;;;;5050733;28;8863;-76
2023/08/01 05:31:50;;;;;;;;;2.75;2.75;;;;;;;;5050764;28;8811;-79
2023/08/01 05:34:17;;;;;;;;;3.00;3.00;;;;;;;;5051029;28;8835;-84
2023/08/01 05:36:44;;;;;;;;;3.25;3.25;;;;;;;;5051032;28;8847;-80
2023/08/01 05:39:13;;;;;;;;;5.00;5.00;;;;;;;;5050868;28;8934;-75
2023/08/01 05:41:40;;;;;;;;;2.75;2.50;;;;;;;;5050943;28;8855;-75
2023/08/01 05:44:07;;;;;;;;;5.50;3.25;;;;;;;;5050964;28;8848;-76
2023/08/01 05:46:35;;;;;;;;;4.00;2.00;;;;;;;;5050470;28;9197;-77
2023/08/01 05:49:02;;;;;;;;;4.00;4.00;;;;;;;;5051004;28;9029;-76
2023/08/01 05:51:29;;;;;;;;;3.75;3.75;;;;;;;;5051211;28;8858;-77
2023/08/01 05:53:56;;;;;;;;;3.75;3.75;;;;;;;;5038023;28;8874;-76
2023/08/01 05:56:25;;;;;;;;;5.00;4.25;;;;;;;;5039941;28;8897;-75
2023/08/01 05:58:52;;;;;;;;;6.25;5.00;;;;;;;;5050848;28;8851;-88
2023/08/01 06:01:24;;;;;;;;;5.50;5.50;;;;;;;;5051147;28;8780;-85
2023/08/01 06:03:51;;;;;;;;;5.25;5.25;;;;;;;;5051291;28;8855;-85
2023/08/01 06:06:19;;;;;;;;;4.25;3.75;;;;;;;;5051907;28;8891;-90
2023/08/01 06:08:46;;;;;;;;;3.50;3.00;;;;;;;;5047447;28;8855;-83
2023/08/01 06:11:13;;;;;;;;;5.25;4.00;;;;;;;;5044014;28;9613;-82
2023/08/01 06:13:42;;;;;;;;;4.75;4.75;;;;;;;;5043101;28;8855;-86
2023/08/01 06:16:09;;;;;;;;;4.25;4.25;;;;;;;;5051983;28;8846;-85
2023/08/01 06:18:36;;;;;;;;;7.50;5.75;;;;;;;;5051834;28;8943;-82
2023/08/01 06:21:04;;;;;;;;;3.25;3.25;;;;;;;;5039662;28;8877;-84
2023/08/01 06:23:31;;;;;;;;;5.00;3.00;;;;;;;;5038681;28;8874;-81
2023/08/01 06:25:58;;;;;;;;;3.25;3.25;;;;;;;;5052518;28;8851;-80
2023/08/01 06:28:26;;;;;;;;;3.75;3.75;;;;;;;;5052164;28;8859;-82
2023/08/01 06:30:54;;;;;;;;;4.75;4.25;;;;;;;;5051884;28;8780;-82
2023/08/01 06:33:22;;;;;;;;;7.75;6.50;;;;;;;;5051273;28;8885;-84
2023/08/01 06:35:49;;;;;;;;;4.50;4.25;;;;;;;;5050968;28;8989;-84
2023/08/01 06:38:16;;;;;;;;;4.00;2.50;;;;;;;;5050010;28;8843;-86
2023/08/01 06:40:43;;;;;;;;;5.50;4.00;;;;;;;;5049660;28;8875;-85
2023/08/01 06:43:11;;;;;;;;;3.00;3.00;;;;;;;;5034111;28;8858;-87
2023/08/01 06:45:38;;;;;;;;;5.25;4.00;;;;;;;;5046997;28;8948;-86
2023/08/01 06:48:07;;;;;;;;;3.25;3.25;;;;;;;;5051639;28;8878;-86
2023/08/01 06:50:34;;;;;;;;;4.25;4.25;;;;;;;;5051911;28;8835;-86
2023/08/01 06:53:01;;;;;;;;;5.50;4.00;;;;;;;;5052553;28;8878;-87
2023/08/01 06:55:29;;;;;;;;;5.50;3.00;;;;;;;;5052498;28;8974;-87
2023/08/01 06:57:56;;;;;;;;;5.00;5.00;;;;;;;;5044366;28;8988;-86
2023/08/01 07:00:23;;;;;;;;;3.75;3.75;;;;;;;;5048351;28;8851;-87
2023/08/01 07:02:51;;;;;;;;;2.25;2.25;;;;;;;;5050886;28;8855;-86
2023/08/01 07:05:20;;;;;;;;;3.25;3.25;;;;;;;;5054409;28;8859;-89
2023/08/01 07:07:47;;;;;;;;;8.00;3.00;;;;;;;;5051982;28;8858;-87
2023/08/01 07:10:14;;;;;;;;;3.00;3.00;;;;;;;;5050144;28;8909;-86
2023/08/01 07:12:41;;;;;;;;;3.75;3.00;;;;;;;;5041711;28;8857;-86
2023/08/01 07:15:09;;;;;;;;;4.75;4.75;;;;;;;;5045837;28;8943;-84
2023/08/01 07:17:37;;;;;;;;;3.25;3.25;;;;;;;;5050502;28;8854;-85
2023/08/01 07:20:04;;;;;;;;;7.00;5.00;;;;;;;;5035392;28;8968;-84
2023/08/01 07:22:33;;;;;;;;;3.25;2.75;;;;;;;;5041439;28;8883;-83
2023/08/01 07:25:00;;;;;;;;;3.75;3.75;;;;;;;;5045323;28;8883;-87
2023/08/01 07:27:27;;;;;;;;;5.00;3.50;;;;;;;;5043290;28;8851;-86
2023/08/01 07:29:54;;;;;;;;;3.25;3.25;;;;;;;;5049927;28;8892;-87
2023/08/01 07:32:22;;;;;;;;;3.25;3.25;;;;;;;;5037516;28;8800;-86
2023/08/01 07:34:49;;;;;;;;;3.50;3.50;;;;;;;;5053459;28;8838;-87
2023/08/01 07:37:16;;;;;;;;;5.75;5.75;;;;;;;;5055441;28;9617;-86
2023/08/01 07:39:45;;;;;;;;;4.20;2.80;;;;;;;;5039004;28;8845;-86
2023/08/01 07:42:12;;;;;;;;;6.20;4.20;;;;;;;;5050500;28;8885;-86
2023/08/01 07:44:39;;;;;;;;;6.40;4.00;;;;;;;;5037895;28;8858;-84
2023/08/01 07:47:07;;;;;;;;;4.75;3.00;;;;;;;;5050385;28;8853;-87
2023/08/01 07:49:34;;;;;;;;;4.50;4.50;;;;;;;;5049472;28;8860;-85
2023/08/01 07:52:01;;;;;;;;;3.20;3.20;;;;;;;;5037266;28;8856;-84
2023/08/01 07:54:28;;;;;;;;;4.00;4.00;;;;;;;;5050311;28;8975;-85
2023/08/01 07:56:57;;;;;;;;;6.00;6.00;;;;;;;;5048199;28;9627;-85
2023/08/01 07:59:24;;;;;;;;;4.80;3.40;;;;;;;;5038073;28;8858;-84
2023/08/01 08:01:52;;;;;;;;;4.00;4.00;;;;;;;;5048749;28;8846;-86
2023/08/01 08:04:19;;;;;;;;;7.00;5.20;;;;;;;;5050176;28;8942;-87
2023/08/01 08:06:47;;;;;;;;;5.20;4.40;;;;;;;;5049395;28;8903;-85
2023/08/01 08:09:14;;;;;;;;;6.40;4.60;;;;;;;;5051150;28;8895;-82
2023/08/01 08:11:41;;;;;;;;;5.00;5.00;;;;;;;;5050344;28;8854;-83
2023/08/01 08:14:11;;;;;;;;;4.40;4.40;;;;;;;;5040352;28;8846;-83
2023/08/01 08:16:38;;;;;;;;;5.40;5.40;;;;;;;;5037030;28;8923;-83
2023/08/01 08:19:05;;;;;;;;;6.00;6.00;;;;;;;;5049306;28;8869;-84
2023/08/01 08:21:33;;;;;;;;;4.80;3.60;;;;;;;;5036749;28;8995;-83
2023/08/01 08:24:00;;;;;;;;;5.00;5.00;;;;;;;;5048905;28;8959;-86
2023/08/01 08:26:28;;;;;;;;;5.20;3.40;;;;;;;;5049189;28;8883;-88
2023/08/01 08:28:55;;;;;;;;;5.00;4.80;;;;;;;;5049495;28;8975;-87
2023/08/01 08:31:25;;;;;;;;;4.00;4.00;;;;;;;;5050355;28;8821;-88
2023/08/01 08:33:52;;;;;;;;;6.60;4.20;;;;;;;;5051719;28;8861;-87
2023/08/01 08:36:19;;;;;;;;;6.00;5.20;;;;;;;;5038804;28;8992;-87
2023/08/01 08:38:46;;;;;;;;;7.40;4.00;;;;;;;;5049585;28;8865;-88
2023/08/01 08:41:15;;;;;;;;;4.20;4.20;;;;;;;;5044504;28;8864;-87
2023/08/01 08:43:43;;;;;;;;;8.00;8.00;;;;;;;;5040318;28;8849;-87
2023/08/01 08:46:13;;;;;;;;;7.00;3.60;;;;;;;;5054587;28;8887;-87
2023/08/01 08:48:44;;;;;;;;;5.60;5.60;;;;;;;;5050063;28;8873;-86
2023/08/01 08:51:14;;;;;;;;;5.20;5.20;;;;;;;;5036819;28;8849;-83
2023/08/01 08:53:42;;;;;;;;;5.40;5.40;;;;;;;;5047830;28;8891;-82
2023/08/01 08:56:11;;;;;;;;;5.20;5.20;;;;;;;;5048938;28;8850;-86
2023/08/01 08:58:39;;;;;;;;;5.40;5.40;;;;;;;;5047562;28;8849;-86
2023/08/01 09:01:08;;;;;;;;;9.60;8.00;;;;;;;;5048139;28;9730;-86
2023/08/01 09:03:36;;;;;;;;;7.40;6.00;;;;;;;;5048350;28;8869;-85
2023/08/01 09:06:10;;;;;;;;;5.40;3.20;;;;;;;;5048455;28;8923;-84
2023/08/01 09:08:41;;;;;;;;;9.80;7.80;;;;;;;;5045278;28;8840;-85
2023/08/01 09:11:09;;;;;;;;;5.60;4.60;;;;;;;;5040461;28;8849;-87
2023/08/01 09:13:36;;;;;;;;;3.60;3.60;;;;;;;;5048425;28;8865;-83
2023/08/01 09:16:04;;;;;;;;;7.60;6.40;;;;;;;;5048037;28;9116;-85
2023/08/01 09:18:31;;;;;;;;;6.00;6.00;;;;;;;;5048432;28;8865;-85
2023/08/01 09:21:02;;;;;;;;;8.00;5.40;;;;;;;;5042293;28;8943;-85
2023/08/01 09:23:31;;;;;;;;;4.60;4.60;;;;;;;;5043375;28;8876;-85
2023/08/01 09:25:59;;;;;;;;;7.20;5.20;;;;;;;;5029737;28;8941;-86
2023/08/01 09:28:26;;;;;;;;;6.60;6.60;;;;;;;;5049033;28;8877;-85
2023/08/01 09:30:57;;;;;;;;;4.60;3.80;;;;;;;;5047618;28;8786;-87
2023/08/01 09:33:24;;;;;;;;;5.20;5.20;;;;;;;;5036769;28;8858;-87
2023/08/01 09:35:52;;;;;;;;;9.00;6.00;;;;;;;;5035183;28;8900;-86
2023/08/01 09:38:20;;;;;;;;;6.20;4.60;;;;;;;;5036235;28;8869;-86
2023/08/01 09:40:49;;;;;;;;;5.40;4.40;;;;;;;;5047919;28;8865;-86
2023/08/01 09:43:17;;;;;;;;;4.20;4.20;;;;;;;;5048966;28;8865;-85
2023/08/01 09:45:54;;;;;;;;;3.80;3.80;;;;;;;;5034712;28;8868;-87
2023/08/01 09:48:25;;;;;;;;;1.00;1.00;;;;;;;;5048402;28;8905;-87
2023/08/01 09:50:53;;;;;;;;;3.60;3.60;;;;;;;;5047537;28;8857;-88
2023/08/01 09:53:21;;;;;;;;;3.80;3.80;;;;;;;;5048320;28;8885;-87
2023/08/01 09:55:51;;;;;;;;;6.60;4.20;;;;;;;;5044171;28;8882;-84
2023/08/01 09:58:19;;;;;;;;;8.60;7.60;;;;;;;;5043794;28;8873;-86
2023/08/01 10:00:46;;;;;;;;;6.80;6.80;;;;;;;;5047886;28;8815;-86
2023/08/01 10:03:14;;;;;;;;;8.40;6.60;;;;;;;;5059022;28;8852;-86
2023/08/01 10:05:42;;;;;;;;;7.80;6.40;;;;;;;;5048165;28;9595;-83
2023/08/01 10:08:10;;;;;;;;;5.00;5.00;;;;;;;;5048697;28;8874;-86
2023/08/01 10:10:37;;;;;;;;;7.00;5.20;;;;;;;;5049349;28;8867;-86
2023/08/01 10:13:06;;;;;;;;;7.20;5.80;;;;;;;;5052132;28;8855;-86
2023/08/01 10:15:35;;;;;;;;;5.00;5.00;;;;;;;;5054796;28;8861;-85
2023/08/01 10:18:02;;;;;;;;;6.00;6.00;;;;;;;;5051747;28;8952;-85
2023/08/01 10:20:31;;;;;;;;;5.80;5.80;;;;;;;;5052068;28;8997;-85
2023/08/01 10:23:00;;;;;;;;;4.80;4.80;;;;;;;;5054785;28;9638;-86
2023/08/01 10:25:28;;;;;;;;;6.00;6.00;;;;;;;;5051775;28;8970;-87
2023/08/01 10:27:59;;;;;;;;;8.00;6.40;;;;;;;;5051184;28;8874;-86
2023/08/01 10:30:29;;;;;;;;;2.80;2.80;;;;;;;;5051081;28;8750;-86
2023/08/01 10:32:58;;;;;;;;;4.00;4.00;;;;;;;;5051434;28;8863;-84
2023/08/01 10:35:35;;;;;;;;;5.00;4.20;;;;;;;;5041908;28;8993;-86
2023/08/01 10:38:06;;;;;;;;;3.00;1.80;;;;;;;;5050919;28;8894;-85
2023/08/01 10:40:37;;;;;;;;;3.40;3.40;;;;;;;;5051513;28;8885;-86
2023/08/01 10:43:05;;;;;;;;;3.20;3.20;;;;;;;;5047660;28;8873;-86
2023/08/01 10:45:33;;;;;;;;;4.20;4.20;;;;;;;;5051161;28;8867;-87
2023/08/01 10:48:11;;;;;;;;;5.60;5.60;;;;;;;;5054013;28;8840;-86
2023/08/01 10:50:38;;;;;;;;;4.20;4.20;;;;;;;;5051429;28;8862;-86
2023/08/01 10:53:07;;;;;;;;;6.00;6.00;;;;;;;;5050489;28;8925;-86
2023/08/01 10:55:41;;;;;;;;;4.00;4.00;;;;;;;;5050987;28;8941;-87
2023/08/01 10:58:09;;;;;;;;;9.40;5.80;;;;;;;;5050429;28;8873;-85
2023/08/01 11:00:38;;;;;;;;;5.80;5.00;;;;;;;;5050264;28;8813;-87
2023/08/01 11:03:05;;;;;;;;;4.80;4.80;;;;;;;;5050591;28;8882;-86
2023/08/01 11:05:32;;;;;;;;;5.80;5.80;;;;;;;;5050023;28;8981;-87
2023/08/01 11:08:02;;;;;;;;;5.80;5.00;;;;;;;;5051114;28;8858;-86
2023/08/01 11:10:30;;;;;;;;;5.80;5.00;;;;;;;;5053127;28;8940;-86
2023/08/01 11:12:58;;;;;;;;;8.40;4.60;;;;;;;;5051551;28;8887;-87
2023/08/01 11:15:26;;;;;;;;;4.60;4.60;;;;;;;;5055938;28;8953;-86
2023/08/01 11:17:56;;;;;;;;;4.80;4.80;;;;;;;;5058454;28;8994;-88
2023/08/01 11:20:25;;;;;;;;;5.20;4.00;;;;;;;;5050648;28;8886;-86
2023/08/01 11:22:54;;;;;;;;;5.00;5.00;;;;;;;;5049469;28;8844;-85
2023/08/01 11:25:32;;;;;;;;;5.40;3.00;;;;;;;;5050591;28;8883;-85
2023/08/01 11:28:06;;;;;;;;;3.80;3.80;;;;;;;;5049827;28;8845;-87
2023/08/01 11:30:34;;;;;;;;;4.80;4.80;;;;;;;;5050276;28;8771;-86
2023/08/01 11:33:05;;;;;;;;;3.80;3.80;;;;;;;;5049406;28;8889;-86
2023/08/01 11:35:32;;;;;;;;;3.80;3.00;;;;;;;;5050304;28;8932;-85
2023/08/01 11:38:00;;;;;;;;;3.80;3.80;;;;;;;;5049786;28;8981;-86
2023/08/01 11:40:27;;;;;;;;;2.60;2.60;;;;;;;;5050566;28;8861;-85
2023/08/01 11:42:58;;;;;;;;;3.60;3.60;;;;;;;;5049164;28;9628;-86
2023/08/01 11:45:26;;;;;;;;;4.20;3.80;;;;;;;;5051893;28;9689;-87
2023/08/01 11:47:53;;;;;;;;;2.80;2.80;;;;;;;;5054110;28;8885;-85
2023/08/01 11:50:26;;;;;;;;;3.20;3.20;;;;;;;;5053754;28;8974;-84
2023/08/01 11:52:53;;;;;;;;;3.80;3.00;;;;;;;;5051204;28;8886;-83
2023/08/01 11:55:22;;;;;;;;;4.00;4.00;;;;;;;;5049653;28;8871;-83
2023/08/01 11:57:56;;;;;;;;;4.80;3.20;;;;;;;;5048973;28;8862;-84
2023/08/01 12:00:25;;;;;;;;;5.80;3.00;;;;;;;;5051483;28;8905;-85
2023/08/01 12:02:52;;;;;;;;;3.60;3.60;;;;;;;;5053482;28;9001;-84
2023/08/01 12:05:24;;;;;;;;;2.80;2.80;;;;;;;;5048215;28;8870;-84
2023/08/01 12:07:52;;;;;;;;;5.40;4.00;;;;;;;;5048947;28;8865;-86
2023/08/01 12:10:20;;;;;;;;;5.60;5.60;;;;;;;;5049578;28;8851;-87
2023/08/01 12:12:47;;;;;;;;;4.20;4.20;;;;;;;;5049388;28;8878;-87
2023/08/01 12:15:15;;;;;;;;;4.60;4.20;;;;;;;;5048817;28;8883;-86
2023/08/01 12:17:42;;;;;;;;;8.60;5.40;;;;;;;;5049282;28;8847;-86
2023/08/01 12:20:10;;;;;;;;;3.00;3.00;;;;;;;;5049535;28;8861;-86
2023/08/01 12:22:39;;;;;;;;;6.40;3.00;;;;;;;;5049622;28;8901;-85
2023/08/01 12:25:07;;;;;;;;;3.80;3.80;;;;;;;;5054530;28;8879;-84
2023/08/01 12:27:34;;;;;;;;;5.00;5.00;;;;;;;;5067775;28;8857;-83
2023/08/01 12:30:02;;;;;;;;;4.40;2.80;;;;;;;;5048606;28;8855;-85
2023/08/01 12:32:29;;;;;;;;;4.60;3.40;;;;;;;;5047985;28;8913;-86
2023/08/01 12:34:56;;;;;;;;;4.60;4.60;;;;;;;;5048268;28;8869;-85
2023/08/01 12:37:23;;;;;;;;;3.80;3.80;;;;;;;;5049178;28;8878;-85
2023/08/01 12:39:53;;;;;;;;;3.40;3.40;;;;;;;;5036942;28;8858;-86
2023/08/01 12:42:20;;;;;;;;;4.40;2.80;;;;;;;;5060557;28;8860;-84
2023/08/01 12:44:47;;;;;;;;;1.20;1.20;;;;;;;;5048668;28;8855;-86
2023/08/01 12:47:15;;;;;;;;;2.00;2.00;;;;;;;;5048889;28;8847;-85
2023/08/01 12:49:42;;;;;;;;;0.80;0.80;;;;;;;;5047799;28;8871;-86
2023/08/01 12:52:09;;;;;;;;;2.00;2.00;;;;;;;;5060531;28;9734;-85
2023/08/01 12:54:36;;;;;;;;;1.60;1.00;;;;;;;;5049074;28;8871;-85
2023/08/01 12:57:07;;;;;;;;;3.80;2.20;;;;;;;;5049099;28;8873;-86
2023/08/01 12:59:34;;;;;;;;;1.20;1.20;;;;;;;;5050709;28;8867;-83
2023/08/01 13:02:01;;;;;;;;;2.20;2.20;;;;;;;;5063702;28;8839;-86
2023/08/01 13:04:28;;;;;;;;;3.00;1.40;;;;;;;;5068987;28;8954;-86
2023/08/01 13:06:56;;;;;;;;;2.20;2.20;;;;;;;;5068520;28;8850;-86
2023/08/01 13:09:23;;;;;;;;;2.40;1.80;;;;;;;;5069403;28;8863;-84
2023/08/01 13:11:50;;;;;;;;;2.80;2.80;;;;;;;;5066986;28;8870;-85
2023/08/01 13:14:19;;;;;;;;;2.00;2.00;;;;;;;;5068938;28;8835;-85
2023/08/01 13:16:47;;;;;;;;;2.00;2.00;;;;;;;;5068130;28;8855;-86
2023/08/01 13:19:14;;;;;;;;;1.80;1.80;;;;;;;;5069065;28;8862;-84
2023/08/01 13:21:42;;;;;;;;;2.60;2.00;;;;;;;;5068664;28;8877;-84
2023/08/01 13:24:09;;;;;;;;;0.00;0.00;;;;;;;;5070851;28;8991;-84
2023/08/01 13:26:37;;;;;;;;;3.00;3.00;;;;;;;;5074722;28;8852;-85
2023/08/01 13:29:04;;;;;;;;;0.80;0.80;;;;;;;;5076250;28;8869;-84
2023/08/01 13:31:32;;;;;;;;;1.40;1.40;;;;;;;;5069431;28;8826;-84
2023/08/01 13:34:00;;;;;;;;;1.20;1.20;;;;;;;;5060412;28;8965;-83
2023/08/01 13:36:27;;;;;;;;;1.00;1.00;;;;;;;;5075023;28;8983;-84
2023/08/01 13:38:54;;;;;;;;;1.60;1.60;;;;;;;;5073949;28;8870;-84
2023/08/01 13:41:21;;;;;;;;;0.80;0.80;;;;;;;;5071813;28;8864;-83
2023/08/01 13:43:49;;;;;;;;;2.00;2.00;;;;;;;;5068311;28;8927;-84
2023/08/01 13:46:17;;;;;;;;;0.60;0.60;;;;;;;;5068552;28;8871;-87
2023/08/01 13:48:46;;;;;;;;;3.00;1.20;;;;;;;;5070025;28;8877;-85
2023/08/01 13:51:13;;;;;;;;;4.60;1.80;;;;;;;;5066001;28;8912;-85
2023/08/01 13:53:42;;;;;;;;;2.20;2.20;;;;;;;;5071752;28;8973;-84
2023/08/01 13:56:09;;;;;;;;;1.00;1.00;;;;;;;;5067129;28;8854;-85
2023/08/01 13:58:36;;;;;;;;;1.40;1.40;;;;;;;;5065578;28;9709;-84
2023/08/01 14:01:04;;;;;;;;;1.80;1.80;;;;;;;;5071323;28;8776;-86
2023/08/01 14:03:32;;;;;;;;;2.60;1.40;;;;;;;;5073569;28;8854;-86
2023/08/01 14:06:06;;;;;;;;;2.00;1.80;;;;;;;;5081997;28;8888;-84
2023/08/01 14:08:33;;;;;;;;;2.80;1.80;;;;;;;;5071966;28;8855;-85
2023/08/01 14:11:02;;;;;;;;;1.00;1.00;;;;;;;;5073381;28;9256;-84
2023/08/01 14:13:29;;;;;;;;;2.80;1.00;;;;;;;;5072921;28;8981;-85
2023/08/01 14:15:56;;;;;;;;;5.40;1.40;;;;;;;;5071306;28;8942;-85
2023/08/01 14:18:23;;;;;;;;;1.20;1.20;;;;;;;;5071344;28;9005;-85
2023/08/01 14:20:51;;;;;;;;;3.00;1.20;;;;;;;;5070905;28;8835;-84
2023/08/01 14:23:20;;;;;;;;;2.20;0.60;;;;;;;;5083328;28;8881;-85
2023/08/01 14:25:47;;;;;;;;;2.20;1.40;;;;;;;;5071818;28;8867;-84
2023/08/01 14:28:14;;;;;;;;;1.60;1.60;;;;;;;;5071793;28;8859;-86
2023/08/01 14:30:42;;;;;;;;;1.40;1.40;;;;;;;;5070776;28;9510;-86
2023/08/01 14:33:10;;;;;;;;;2.80;2.20;;;;;;;;5071276;28;8839;-86
2023/08/01 14:35:38;;;;;;;;;1.60;1.60;;;;;;;;5059511;28;8853;-86
2023/08/01 14:38:05;;;;;;;;;0.20;0.20;;;;;;;;5071300;28;8975;-86
2023/08/01 14:40:35;;;;;;;;;0.80;0.80;;;;;;;;5071902;28;9005;-87
2023/08/01 14:43:02;;;;;;;;;0.60;0.60;;;;;;;;5058649;28;8850;-88
2023/08/01 14:45:30;;;;;;;;;1.00;1.00;;;;;;;;5071313;28;8882;-87
2023/08/01 14:47:57;;;;;;;;;1.00;1.00;;;;;;;;5076020;28;8932;-86
2023/08/01 14:50:24;;;;;;;;;0.20;0.20;;;;;;;;5062353;28;8877;-86
2023/08/01 14:52:52;;;;;;;;;0.20;0.20;;;;;;;;5071494;28;8847;-85
2023/08/01 14:55:20;;;;;;;;;0.80;0.80;;;;;;;;5084964;28;8848;-86
2023/08/01 14:57:50;;;;;;;;;2.20;1.20;;;;;;;;5070965;28;8878;-87
2023/08/01 15:00:17;;;;;;;;;0.20;0.20;;;;;;;;5071130;28;8866;-86
2023/08/01 15:02:45;;;;;;;;;0.20;0.20;;;;;;;;5073323;28;8873;-85